Spencer, Iowa
Current Conditions -  °F | °C
As of 1:53 AM on Friday 28 Nov 2014 (Local Time) from KSPW Reporting Station
Scattered Clouds Scattered Clouds  
Wind Chill: -2°   Ceiling: Unl
Heat Index: 14°   Visibility: 10mi
Dew Point:   Wind: 16mph
Humidity: 77%   Direction: 150°SSE
Pressure: 30.02"   Gusts: NA
Location:  43.14°N, 95.14°W
Report Text: KSPW 280753Z AUTO 15014KT 10SM SCT110 M10/M13 A3002 RMK AO2 SLP193 T11001133 TSNO $
Loading
Personal Weather Stations






























Interactive Weather Map New forecast layout! Learn more

10-Day Weather Forecast

Advertisements
Track Severe Weather on mobile